Pioche, Nevada Weather observations

Data are for observation ending at time listed.
 Day   Time    Ave.   Ave.  Ave.  Vector   Max.   Stn.    Total    Solar   Ave.  
  of    of     Air    Rel.  Wind   Wind    Wind   Baro.  Precip.   Rad.    Soil  
Year   Day     Temp.  Hum.  Speed  Dir.    Gust   Pres.                    Temp. 
2016   (PST)    F      %     mph   deg.    mph     mb.     in.     W/m2     F   
------------------------------------------------------------------------------
  36    5:30   21.5    74    5.6   276      9.7   830.6    0.00       0    32.9
  36    5:40   22.4    72    5.8   287      9.6   830.7    0.00       0    32.9
  36    5:50   22.0    72    5.3   288      8.5   830.9    0.00       0    32.9
  36    6:00   21.6    73    5.8   289      9.6   831.0    0.00       0    32.9
  36    6:10   21.4    74    6.5   282     11.2   831.1    0.00       0    32.9
  36    6:20   21.9    73    6.9   279     10.6   831.2    0.00       0    32.9
  36    6:30   22.6    72    6.9   273     10.8   831.2    0.00       0    32.9
  36    6:40   23.0    71    6.8   280     10.3   831.3    0.00       3    32.9
  36    6:50   22.8    71    7.4   278     11.0   831.4    0.00      10    32.9
  36    7:00   23.2    70    7.2   278     12.6   831.4    0.00      30    32.9
  36    7:10   23.7    69    7.2   277     11.0   831.5    0.00      60    32.9
  36    7:20   24.4    67    7.3   278     11.8   831.6    0.00      97    32.9
  36    7:30   25.0    66    6.7   281     11.6   831.6    0.00     137    32.9
  36    7:40   25.6    64    5.4   296      7.8   831.7    0.00     170    32.9
  36    7:50   25.5    64    5.8   298      8.6   831.8    0.00     202    33.0
  36    8:00   25.3    65    5.0   292      8.2   831.8    0.00     234    33.0
  36    8:10   25.8    64    6.6   287      9.4   831.8    0.00     268    33.0
  36    8:20   26.3    64    6.4   289      9.5   831.8    0.00     301    33.0
  36    8:30   27.3    63    5.6   286      9.2   831.8    0.00     336    33.0
  36    8:40   28.0    62    5.0   298      7.7   831.7    0.00     369    33.0
  36    8:50   28.4    62    5.2   313      7.6   831.8    0.00     399    33.0
  36    9:00   28.2    62    5.5   314      7.8   831.9    0.00     430    33.0
  36    9:10   28.3    62    5.4   308      8.4   831.9    0.00     459    33.0
  36    9:20   29.3    60    3.4   304      5.6   832.0    0.00     488    33.1
  36    9:30   29.7    60    5.3   299      7.3   832.0    0.00     515    33.1
  36    9:40   30.1    60    5.1   294      7.1   832.0    0.00     538    33.1
  36    9:50   31.4    57    3.4   309      5.5   832.2    0.00     564    33.1
  36   10:00   31.9    56    4.1   311      6.2   832.3    0.00     589    33.1
  36   10:10   32.1    56    3.7   304      5.8   832.3    0.00     618    33.1
  36   10:20   33.0    55    3.5   307      5.7   832.4    0.00     634    33.1
  36   10:30   33.5    55    3.3   295      5.4   832.3    0.00     650    33.1
  36   10:40   34.8    52    3.1   293      5.5   832.3    0.00     666    33.1
  36   10:50   34.5    53    3.5   296      5.8   832.3    0.00     658    33.1
  36   11:00   34.9    53    3.6   302      5.3   832.2    0.00     668    33.2
  36   11:10   36.1    50    2.9   306      4.7   832.2    0.00     700    33.1
  36   11:20   36.2    50    3.4   295      4.9   832.2    0.00     718    33.1
  36   11:30   36.8    51    3.3   299      5.2   832.0    0.00     698    33.1
  36   11:40   36.8    51    3.1   315      5.0   831.9    0.00     709    33.1
  36   11:50   37.6    49    3.2   298      5.0   831.8    0.00     715    33.1
  36   12:00   38.2    47    2.6   318      4.2   831.7    0.00     717    33.1
  36   12:10   40.1    43    1.6   309      3.1   831.6    0.00     715    33.1
  36   12:20   41.9    40    1.1   279      1.8   831.6    0.00     705    33.1
  36   12:30   42.1    40    2.0   308      3.9   831.6    0.00     707    33.1
  36   12:40   40.0    43    2.6   318      4.1   831.3    0.00     696    33.2
  36   12:50   39.5    45    3.2   310      4.7   831.1    0.00     686    33.1
  36   13:00   38.9    47    4.0   297      5.9   831.0    0.00     672    33.1
  36   13:10   38.3    48    4.5   283      6.9   830.8    0.00     658    33.1
  36   13:20   38.1    50    5.5   301      8.7   830.7    0.00     640    33.1
  36   13:30   38.2    50    4.6   301      6.6   830.6    0.00     613    33.1
  36   13:40   38.4    49    4.4   289      6.6   830.6    0.00     567    33.1
  36   13:50   38.6    49    4.7   309      6.9   830.6    0.00     549    33.1
  36   14:00   38.4    50    5.4   309      8.0   830.6    0.00     574    33.1
  36   14:10   38.2    51    4.8   306      7.9   830.6    0.00     536    33.1
  36   14:20   37.7    52    5.6   300      8.3   830.5    0.00     522    33.1
  36   14:30   37.4    52    5.6   298      9.0   830.5    0.00     495    33.1
  36   14:40   37.5    52    5.6   298      8.1   830.6    0.00     461    33.1
  36   14:50   37.5    53    5.6   298      7.6   830.6    0.00     444    33.1
  36   15:00   37.4    52    4.6   290      7.3   830.7    0.00     410    33.1
  36   15:10   37.5    52    4.9   283      8.0   830.6    0.00     383    33.1
  36   15:20   37.1    53    5.4   289      9.5   830.6    0.00     360    33.1
  36   15:30   36.9    53    5.9   288      9.8   830.6    0.00     319    33.1
  36   15:40   36.3    55    5.6   283      8.8   830.7    0.00     273    33.1
  36   15:50   35.9    55    5.9   281      9.0   830.7    0.00     253    33.1
  36   16:00   35.5    56    5.5   282     10.2   830.7    0.00     221    33.1
  36   16:10   35.2    55    5.0   271      8.1   830.7    0.00     188    33.1
  36   16:20   34.5    55    4.8   267      7.7   830.7    0.00     154    33.1
  36   16:30   34.2    56    3.8   259      6.7   830.6    0.00      85    33.1
  36   16:40   33.3    57    1.9   242      3.8   830.7    0.00      14    33.1
  36   16:50   32.9    58    3.7   263      6.8   830.7    0.00      12    33.1
  36   17:00   31.7    60    3.1   249      6.4   830.6    0.00       8    33.1
  36   17:10   31.2    61    2.8   255      7.0   830.7    0.00       5    33.1
  36   17:20   30.9    60    1.5   244      5.3   830.7    0.00       0    33.0
  36   17:30   30.4    62    2.6   254      5.3   830.7    0.00       0    33.1
  36   17:40   29.9    62    1.7   254      3.4   830.7    0.00       0    33.0
  36   17:50   28.8    63    1.8   228      2.9   830.9    0.00       0    33.0
  36   18:00   28.2    65    1.6   248      3.3   830.9    0.00       0    33.0
  36   18:10   27.8    66    1.4   243      3.4   831.0    0.00       0    33.0
  36   18:20   27.4    68    1.7   163      3.7   831.1    0.00       0    33.0
  36   18:30   27.2    68    1.3   175      3.7   831.2    0.00       0    33.0
  36   18:40   27.3    67    1.3   256      2.6   831.3    0.00       0    32.9
  36   18:50   26.5    68    2.6   264      4.7   831.2    0.00       0    32.9
  36   19:00   28.0    66    3.6   258      7.2   831.3    0.00       0    32.9
  36   19:10   29.2    62    4.6   263      7.2   831.3    0.00       0    32.9
  36   19:20   29.3    62    3.8   252      7.2   831.3    0.00       0    32.9
  36   19:30   29.5    62    4.1   263      6.6   831.4    0.00       0    32.9
  36   19:40   29.1    62    2.9   282      5.2   831.4    0.00       0    32.9
  36   19:50   28.7    63    3.8   277      7.6   831.5    0.00       0    32.9
  36   20:00   29.3    61    5.8   278     14.0   831.4    0.00       0    32.9
  36   20:10   28.6    63    4.3   274      7.3   831.4    0.00       0    32.9
  36   20:20   28.3    64    3.9   270      8.9   831.3    0.00       0    32.9
  36   20:30   28.1    65    4.3   275      7.8   831.4    0.00       0    32.9
  36   20:40   27.7    66    4.5   279      8.3   831.4    0.00       0    32.9
  36   20:50   26.8    68    4.5   289      7.7   831.4    0.00       0    32.9
  36   21:00   26.4    68    4.5   283      7.2   831.4    0.00       0    33.0
  36   21:10   25.5    69    2.4   305      5.0   831.3    0.00       0    33.0
  36   21:20   24.5    72    2.2   284      4.7   831.3    0.00       0    33.0
  36   21:30   24.6    72    5.2   282      8.6   831.3    0.00       0    33.0
  36   21:40   25.2    71    6.0   275      9.0   831.2    0.00       0    33.0
  36   21:50   25.2    71    4.8   288      7.3   831.2    0.00       0    32.9
  36   22:00   24.3    73    6.1   289      9.5   831.3    0.00       0    32.9
  36   22:10   24.6    73    5.9   275      8.8   831.2    0.00       0    32.9
  36   22:20   25.1    72    3.9   275      7.6   831.1    0.00       0    32.9
  36   22:30   24.2    74    3.2   282      5.8   831.2    0.00       0    32.9
  36   22:40   25.1    72    4.0   273      6.0   831.2    0.00       0    32.9
  36   22:50   25.5    70    2.1   301      4.2   831.2    0.00       0    32.9
  36   23:00   23.9    73    1.5   290      2.3   831.3    0.00       0    33.0
  36   23:10   23.8    74    1.6   283      2.8   831.3    0.00       0    33.0
  36   23:20   23.0    74    1.7   299      3.5   831.3    0.00       0    33.0
  36   23:30   22.1    76    1.2   316      2.3   831.3    0.00       0    33.0
  36   23:40   21.1    78    0.1   274      0.7   831.2    0.00       0    32.9
  36   23:50   20.2    79    0.2   238      1.1   831.2    0.00       0    32.9
  37    0:00   19.5    81    1.3   176      2.8   831.3    0.00       0    32.9
  37    0:10   19.2    82    1.1   222      2.1   831.2    0.00       0    32.9
  37    0:20   19.3    82    1.5   249      3.1   831.1    0.00       0    32.9
  37    0:30   19.5    81    2.5   257      3.7   831.1    0.00       0    32.9
  37    0:40   20.4    81    2.8   265      4.5   831.1    0.00       0    32.9
  37    0:50   20.9    80    1.6   260      3.0   831.1    0.00       0    32.9
  37    1:00   20.1    81    1.6   262      4.6   831.1    0.00       0    32.9
  37    1:10   20.1    81    1.6   248      2.9   831.0    0.00       0    32.9
  37    1:20   20.2    82    3.0   263      4.2   831.1    0.00       0    32.9
  37    1:30   20.8    80    3.1   260      4.5   831.3    0.00       0    32.9
  37    1:40   21.3    79    2.8   268      5.3   831.3    0.00       0    32.9
  37    1:50   20.5    80    1.8   255      3.1   831.3    0.00       0    32.9
  37    2:00   21.0    80    3.0   269      5.0   831.3    0.00       0    32.9
  37    2:10   20.5    80    3.1   263      4.2   831.3    0.00       0    32.9
  37    2:20   21.5    78    3.0   262      4.4   831.1    0.00       0    32.8
  37    2:30   21.1    79    3.9   264      6.9   831.0    0.00       0    32.8
  37    2:40   22.0    77    3.1   263      6.4   831.0    0.00       0    32.9
  37    2:50   21.3    78    1.2   243      2.5   831.0    0.00       0    32.9
  37    3:00   19.5    80    2.1   252      4.4   831.2    0.00       0    32.9
  37    3:10   20.2    81    2.6   258      4.5   831.2    0.00       0    32.9
  37    3:20   20.4    79    1.3   176      3.6   831.0    0.00       0    32.9
  37    3:30   19.3    81    0.9   195      2.5   831.0    0.00       0    32.9
  37    3:40   19.5    82    1.3   218      3.3   830.8    0.00       0    32.9
  37    3:50   18.9    82    1.5   181      4.0   830.8    0.00       0    32.9
  37    4:00   18.9    82    4.1   152      5.2   830.7    0.00       0    32.9
  37    4:10   19.2    82    3.9   139      6.4   830.6    0.00       0    32.9
  37    4:20   19.0    81    1.3   184      3.1   830.7    0.00       0    32.9
  37    4:30   18.4    82    0.8   149      2.5   830.7    0.00       0    32.9
  37    4:40   17.6    83    0.9   213      2.0   830.6    0.00       0    32.9
  37    4:50   17.1    84    1.1   271      2.7   830.5    0.00       0    32.9
  37    5:00   15.7    85    2.4   236      3.1   830.5    0.00       0    32.9
  37    5:10   15.8    87    1.4   234      2.8   830.4    0.00       0    32.9
  37    5:20   17.0    87    0.1   102      1.3   830.4    0.00       0    32.9

Return to Pioche, Nevada graphs page.


Western Regional Climate Center,wrcc@dri.edu